createdAt,value
2022-11-20T00:02:12.988Z,22.08
2022-11-20T00:04:39.806Z,24.13
2022-11-20T00:07:06.688Z,25.23
2022-11-20T00:09:33.597Z,24.10
2022-11-20T00:12:00.547Z,23.27
2022-11-20T00:14:27.454Z,24.02
2022-11-20T00:16:54.264Z,24.90
2022-11-20T00:19:21.222Z,22.93
2022-11-20T00:21:48.520Z,21.52
2022-11-20T00:24:15.314Z,24.42
2022-11-20T00:26:42.152Z,21.30
2022-11-20T00:29:10.593Z,24.50
2022-11-20T00:31:37.717Z,21.60
2022-11-20T00:34:04.628Z,23.20
2022-11-20T00:36:35.413Z,24.10
2022-11-20T00:39:02.678Z,24.63
2022-11-20T00:41:30.820Z,23.58
2022-11-20T00:43:58.045Z,24.10
2022-11-20T00:46:28.213Z,22.27
2022-11-20T00:48:55.574Z,24.85
2022-11-20T00:51:25.069Z,23.27
2022-11-20T00:53:52.398Z,25.98
2022-11-20T00:56:20.771Z,23.47
2022-11-20T00:58:49.157Z,23.85
2022-11-20T01:01:26.907Z,23.75
2022-11-20T01:03:55.780Z,22.90
2022-11-20T01:06:24.930Z,25.60
2022-11-20T01:08:53.999Z,23.63
2022-11-20T01:11:24.347Z,25.02
2022-11-20T01:13:53.320Z,21.73
2022-11-20T01:16:24.780Z,21.65
2022-11-20T01:18:54.881Z,24.70
2022-11-20T01:21:27.218Z,24.53
2022-11-20T01:23:54.363Z,23.48
2022-11-20T01:26:24.614Z,20.58
2022-11-20T01:28:51.971Z,22.98
2022-11-20T01:31:31.273Z,26.48
2022-11-20T01:34:01.203Z,25.90
2022-11-20T01:36:31.439Z,24.33
2022-11-20T01:39:04.915Z,25.00
2022-11-20T01:41:33.476Z,24.77
2022-11-20T01:44:00.833Z,25.60
2022-11-20T01:46:28.421Z,23.67
2022-11-20T01:49:15.685Z,24.92
2022-11-20T01:51:48.443Z,24.45
2022-11-20T01:54:29.706Z,23.42
2022-11-20T01:56:59.110Z,23.40
2022-11-20T01:59:27.478Z,22.70
2022-11-20T02:01:54.925Z,24.55
2022-11-20T02:04:23.776Z,26.55
2022-11-20T02:06:58.342Z,25.77
2022-11-20T02:09:25.229Z,26.88
2022-11-20T02:11:53.004Z,23.10
2022-11-20T02:14:20.317Z,23.48
2022-11-20T02:16:48.909Z,27.33
2022-11-20T02:19:31.167Z,27.73
2022-11-20T02:22:09.216Z,26.30
2022-11-20T02:24:36.218Z,29.67
2022-11-20T02:27:07.768Z,27.17
2022-11-20T02:29:48.209Z,25.80
2022-11-20T02:32:33.521Z,23.20
2022-11-20T02:35:27.597Z,24.40
2022-11-20T02:37:56.660Z,24.17
2022-11-20T02:40:24.937Z,26.25
2022-11-20T02:42:58.808Z,26.67
2022-11-20T02:45:26.422Z,27.27
2022-11-20T02:47:54.036Z,23.13
2022-11-20T02:50:21.681Z,23.77
2022-11-20T02:52:48.474Z,25.27
2022-11-20T02:55:15.471Z,27.30
2022-11-20T02:57:42.607Z,28.02
2022-11-20T03:00:10.231Z,23.92
2022-11-20T03:02:37.010Z,26.90
2022-11-20T03:05:04.225Z,23.95
2022-11-20T03:07:30.999Z,22.65
2022-11-20T03:09:57.925Z,24.63
2022-11-20T03:12:24.705Z,25.10
2022-11-20T03:14:53.293Z,23.20
2022-11-20T03:17:20.564Z,23.60
2022-11-20T03:19:47.565Z,23.60
2022-11-20T03:22:14.712Z,25.85
2022-11-20T03:24:41.493Z,26.63
2022-11-20T03:27:08.303Z,22.50
2022-11-20T03:29:36.535Z,25.98
2022-11-20T03:32:03.684Z,25.00
2022-11-20T03:34:30.529Z,24.17
2022-11-20T03:36:57.325Z,25.48
2022-11-20T03:39:24.210Z,25.60
2022-11-20T03:41:51.144Z,24.95
2022-11-20T03:44:18.002Z,27.13
2022-11-20T03:46:44.843Z,22.25
2022-11-20T03:49:11.641Z,26.90
2022-11-20T03:51:38.670Z,24.80
2022-11-20T03:54:09.713Z,24.08
2022-11-20T03:56:38.739Z,25.35
2022-11-20T03:59:06.857Z,23.75
2022-11-20T04:01:36.907Z,24.58
2022-11-20T04:04:04.777Z,23.90
2022-11-20T04:06:36.091Z,24.40
2022-11-20T04:09:03.689Z,26.52
2022-11-20T04:11:33.667Z,24.27
2022-11-20T04:14:04.178Z,23.58
2022-11-20T04:16:36.411Z,25.03
2022-11-20T04:19:06.367Z,23.95
2022-11-20T04:21:33.280Z,23.85
2022-11-20T04:24:00.317Z,27.27
2022-11-20T04:26:29.715Z,23.60
2022-11-20T04:28:57.530Z,26.47
2022-11-20T04:31:30.280Z,23.25
2022-11-20T04:34:01.878Z,29.02
2022-11-20T04:36:30.054Z,26.35
2022-11-20T04:38:59.087Z,24.00
2022-11-20T04:41:29.860Z,24.33
2022-11-20T04:43:59.513Z,26.60
2022-11-20T04:46:28.387Z,26.70
2022-11-20T04:48:55.216Z,25.25
2022-11-20T04:51:22.165Z,24.80
2022-11-20T04:53:49.136Z,29.60
2022-11-20T04:56:16.071Z,25.60
2022-11-20T04:58:42.983Z,23.55
2022-11-20T05:01:18.628Z,24.77
2022-11-20T05:03:46.390Z,24.80
2022-11-20T05:06:15.602Z,23.47
2022-11-20T05:08:42.601Z,23.67
2022-11-20T05:11:14.933Z,25.23
2022-11-20T05:13:42.424Z,26.60
2022-11-20T05:16:12.082Z,25.08
2022-11-20T05:18:40.813Z,26.23
2022-11-20T05:21:09.154Z,25.48
2022-11-20T05:23:36.773Z,25.00
2022-11-20T05:26:05.035Z,23.90
2022-11-20T05:28:33.267Z,23.98
2022-11-20T05:31:11.654Z,23.33
2022-11-20T05:33:41.233Z,29.45
2022-11-20T05:36:09.375Z,27.58
2022-11-20T05:38:36.197Z,26.55
2022-11-20T05:41:12.384Z,25.73
2022-11-20T05:43:41.469Z,27.80
2022-11-20T05:46:10.819Z,25.38
2022-11-20T05:48:39.351Z,23.92
2022-11-20T05:51:09.024Z,25.73
2022-11-20T05:53:37.256Z,24.65
2022-11-20T05:56:10.037Z,25.57
2022-11-20T05:58:37.406Z,26.05
2022-11-20T06:01:14.976Z,24.33
2022-11-20T06:03:42.966Z,26.52
2022-11-20T06:06:09.955Z,28.00
2022-11-20T06:08:36.679Z,23.40
2022-11-20T06:11:08.179Z,27.88
2022-11-20T06:13:39.186Z,24.45
2022-11-20T06:16:08.855Z,26.25
2022-11-20T06:18:35.687Z,24.38
2022-11-20T06:21:06.459Z,25.07
2022-11-20T06:23:34.910Z,27.40
2022-11-20T06:26:07.333Z,27.58
2022-11-20T06:28:35.176Z,28.00
2022-11-20T06:31:03.524Z,25.13
2022-11-20T06:33:30.824Z,27.80
2022-11-20T06:36:08.916Z,31.63
2022-11-20T06:38:45.491Z,26.42
2022-11-20T06:41:15.169Z,25.55
2022-11-20T06:43:42.559Z,28.30
2022-11-20T06:46:12.180Z,28.13
2022-11-20T06:48:38.964Z,27.40
2022-11-20T06:51:07.604Z,27.73
2022-11-20T06:53:35.384Z,31.33
2022-11-20T06:56:02.129Z,27.15
2022-11-20T06:58:30.334Z,31.57
2022-11-20T07:01:01.369Z,26.30
2022-11-20T07:03:28.339Z,27.98
2022-11-20T07:05:59.597Z,28.02
2022-11-20T07:08:26.829Z,32.30
2022-11-20T07:10:53.782Z,31.30
2022-11-20T07:13:20.519Z,31.02
2022-11-20T07:15:47.424Z,29.20
2022-11-20T07:18:14.146Z,29.00
2022-11-20T07:20:41.042Z,30.40
2022-11-20T07:23:07.797Z,26.87
2022-11-20T07:25:34.626Z,26.48
2022-11-20T07:28:01.995Z,27.00
2022-11-20T07:30:29.370Z,26.08
2022-11-20T07:32:57.744Z,26.88
2022-11-20T07:35:25.692Z,27.00
2022-11-20T07:37:52.650Z,27.20
2022-11-20T07:40:20.110Z,27.17
2022-11-20T07:42:51.336Z,28.10
2022-11-20T07:45:18.969Z,25.92
2022-11-20T07:47:45.819Z,26.13
2022-11-20T07:50:13.758Z,24.48
2022-11-20T07:52:40.775Z,26.38
2022-11-20T07:55:08.778Z,26.00
2022-11-20T07:57:35.590Z,25.52
2022-11-20T08:00:04.483Z,25.63
2022-11-20T08:02:40.893Z,24.25
2022-11-20T08:05:09.504Z,26.02
2022-11-20T08:07:41.059Z,24.33
2022-11-20T08:10:09.707Z,25.85
2022-11-20T08:12:36.881Z,24.77
2022-11-20T08:15:09.789Z,24.90
2022-11-20T08:17:39.786Z,25.65
2022-11-20T08:20:06.793Z,25.85
2022-11-20T08:22:33.723Z,27.02
2022-11-20T08:25:00.590Z,25.07
2022-11-20T08:27:27.442Z,29.42
2022-11-20T08:29:54.256Z,25.40
2022-11-20T08:32:21.073Z,26.98
2022-11-20T08:34:47.927Z,28.98
2022-11-20T08:37:14.761Z,27.20
2022-11-20T08:39:41.524Z,26.77
2022-11-20T08:42:09.230Z,30.02
2022-11-20T08:44:36.075Z,28.02
2022-11-20T08:47:02.919Z,29.77
2022-11-20T08:49:30.494Z,30.40
2022-11-20T08:51:58.463Z,25.65
2022-11-20T08:54:25.269Z,27.90
2022-11-20T08:56:52.152Z,28.05
2022-11-20T08:59:31.648Z,28.13
2022-11-20T09:02:05.819Z,28.97
2022-11-20T09:04:32.617Z,29.38
2022-11-20T09:07:01.338Z,28.90
2022-11-20T09:09:28.795Z,27.58
2022-11-20T09:11:55.671Z,28.77
2022-11-20T09:14:22.477Z,27.57
2022-11-20T09:16:49.309Z,28.92
2022-11-20T09:22:02.949Z,26.17
2022-11-20T09:24:29.720Z,27.25
2022-11-20T09:26:56.569Z,27.47
2022-11-20T09:29:23.676Z,30.80
2022-11-20T09:31:50.640Z,27.70
2022-11-20T09:34:17.907Z,30.85
2022-11-20T09:36:44.728Z,28.85
2022-11-20T09:39:11.631Z,30.23
2022-11-20T09:42:06.986Z,28.60
2022-11-20T09:44:46.653Z,28.25
2022-11-20T09:47:31.457Z,29.13
2022-11-20T09:50:16.822Z,29.27
2022-11-20T09:52:59.921Z,27.30
2022-11-20T09:55:27.274Z,29.42
2022-11-20T09:57:54.972Z,29.50
2022-11-20T10:00:21.771Z,31.13
2022-11-20T10:03:14.511Z,30.38
2022-11-20T10:05:50.986Z,33.13
2022-11-20T10:08:29.553Z,30.98
2022-11-20T10:11:08.624Z,30.63
2022-11-20T10:14:00.980Z,30.10
2022-11-20T10:16:50.917Z,30.83
2022-11-20T10:19:20.571Z,30.77
2022-11-20T10:21:59.903Z,30.50
2022-11-20T10:25:06.004Z,30.27
2022-11-20T10:27:44.859Z,30.60
2022-11-20T10:30:20.470Z,29.08
2022-11-20T10:32:52.174Z,28.90
2022-11-20T10:35:33.362Z,28.63
2022-11-20T10:38:03.106Z,29.83
2022-11-20T10:40:38.989Z,26.15
2022-11-20T10:43:20.329Z,31.92
2022-11-20T10:46:04.136Z,31.13
2022-11-20T10:48:32.879Z,28.45
2022-11-20T10:51:11.508Z,31.90
2022-11-20T10:53:38.268Z,29.30
2022-11-20T10:56:50.169Z,34.83
2022-11-20T10:59:47.588Z,30.10
2022-11-20T11:02:21.429Z,34.30
2022-11-20T11:04:53.359Z,31.92
2022-11-20T11:07:36.332Z,31.88
2022-11-20T11:10:17.681Z,35.10
2022-11-20T11:12:47.212Z,29.60
2022-11-20T11:15:26.112Z,32.40
2022-11-20T11:17:52.888Z,31.65
2022-11-20T11:20:25.568Z,30.85
2022-11-20T11:22:55.300Z,31.25
2022-11-20T11:25:34.020Z,33.70
2022-11-20T11:28:04.528Z,29.75
2022-11-20T11:30:42.731Z,30.35
2022-11-20T11:33:22.803Z,31.00
2022-11-20T11:35:55.312Z,29.77
2022-11-20T11:38:43.106Z,28.17
2022-11-20T11:41:19.975Z,29.33
2022-11-20T11:43:58.612Z,30.35
2022-11-20T11:46:36.123Z,29.60
2022-11-20T11:49:17.662Z,33.13
2022-11-20T11:52:02.686Z,30.47
2022-11-20T11:54:32.717Z,29.77
2022-11-20T11:57:13.243Z,32.15
2022-11-20T12:00:04.436Z,31.95
2022-11-20T12:02:34.121Z,31.52
2022-11-20T12:05:19.069Z,33.73
2022-11-20T12:08:12.857Z,33.65
2022-11-20T12:10:58.509Z,31.15
2022-11-20T12:13:28.246Z,28.88
2022-11-20T12:15:55.287Z,28.55
2022-11-20T12:18:23.608Z,30.27
2022-11-20T12:21:11.878Z,29.67
2022-11-20T12:24:09.927Z,31.27
2022-11-20T12:27:10.455Z,29.85
2022-11-20T12:29:49.188Z,30.65
2022-11-20T12:32:16.156Z,30.93
2022-11-20T12:34:54.277Z,31.75
2022-11-20T12:37:49.052Z,34.10
2022-11-20T12:40:34.211Z,29.25
2022-11-20T12:43:24.558Z,28.00
2022-11-20T12:46:19.432Z,28.43
2022-11-20T12:49:21.691Z,32.33
2022-11-20T12:52:07.972Z,33.08
2022-11-20T12:54:51.601Z,27.05
2022-11-20T12:57:39.870Z,29.80
2022-11-20T13:00:16.542Z,27.77
2022-11-20T13:03:08.134Z,30.55
2022-11-20T13:06:16.934Z,27.95
2022-11-20T13:08:57.622Z,31.13
2022-11-20T13:11:42.445Z,29.65
2022-11-20T13:14:44.152Z,29.10
2022-11-20T13:17:38.205Z,30.50
2022-11-20T13:20:13.581Z,28.92
2022-11-20T13:22:45.340Z,25.92
2022-11-20T13:25:23.992Z,29.42
2022-11-20T13:27:51.882Z,29.90
2022-11-20T13:30:22.001Z,32.00
2022-11-20T13:32:53.791Z,29.55
2022-11-20T13:35:27.589Z,28.38
2022-11-20T13:38:08.420Z,31.42
2022-11-20T13:40:39.702Z,37.77
2022-11-20T13:43:20.835Z,33.65
2022-11-20T13:46:03.446Z,28.92
2022-11-20T13:48:40.031Z,29.85
2022-11-20T13:51:29.025Z,27.88
2022-11-20T13:54:30.715Z,29.97
2022-11-20T13:57:03.624Z,30.88
2022-11-20T13:59:53.620Z,27.55
2022-11-20T14:02:23.900Z,27.27
2022-11-20T14:04:54.097Z,29.38
2022-11-20T14:07:26.075Z,30.93
2022-11-20T14:09:58.888Z,29.20
2022-11-20T14:12:35.508Z,30.88
2022-11-20T14:15:02.902Z,31.17
2022-11-20T14:17:30.487Z,28.77
2022-11-20T14:20:07.688Z,29.73
2022-11-20T14:22:35.157Z,29.73
2022-11-20T14:25:08.432Z,26.75
2022-11-20T14:27:40.259Z,29.63
2022-11-20T14:30:21.839Z,29.17
2022-11-20T14:32:50.629Z,31.17
2022-11-20T14:35:42.441Z,30.67
2022-11-20T14:38:15.232Z,31.95
2022-11-20T14:40:42.798Z,30.45
2022-11-20T14:43:22.224Z,31.70
2022-11-20T14:46:16.707Z,34.23
2022-11-20T14:48:50.503Z,31.15
2022-11-20T14:51:38.681Z,30.73
2022-11-20T14:54:20.946Z,28.88
2022-11-20T14:57:04.054Z,27.17
2022-11-20T14:59:36.151Z,28.07
2022-11-20T15:02:14.654Z,28.73
2022-11-20T15:04:58.434Z,28.67
2022-11-20T15:07:34.769Z,29.52
2022-11-20T15:10:12.723Z,29.05
2022-11-20T15:12:47.285Z,27.73
2022-11-20T15:15:22.175Z,27.73
2022-11-20T15:17:49.918Z,28.35
2022-11-20T15:20:18.604Z,27.42
2022-11-20T15:22:46.208Z,27.98
2022-11-20T15:25:16.166Z,29.37
2022-11-20T15:27:45.259Z,27.75
2022-11-20T15:30:19.000Z,31.95
2022-11-20T15:32:47.296Z,30.17
2022-11-20T15:35:15.842Z,30.23
2022-11-20T15:37:44.375Z,30.33
2022-11-20T15:40:13.627Z,30.30
2022-11-20T15:42:41.299Z,30.52
2022-11-20T15:45:08.865Z,28.23
2022-11-20T15:47:36.560Z,31.75
2022-11-20T15:50:05.559Z,27.57
2022-11-20T15:52:41.538Z,31.08
2022-11-20T15:55:12.979Z,29.95
2022-11-20T15:57:40.288Z,28.00
2022-11-20T16:00:09.190Z,30.60
2022-11-20T16:02:38.229Z,39.67
2022-11-20T16:05:11.172Z,36.45
2022-11-20T16:07:39.273Z,35.47
2022-11-20T16:10:07.211Z,34.20
2022-11-20T16:12:34.912Z,32.70
2022-11-20T16:15:01.896Z,33.30
2022-11-20T16:17:29.766Z,31.35
2022-11-20T16:19:57.979Z,30.80
2022-11-20T16:22:25.810Z,33.88
2022-11-20T16:24:56.793Z,32.25
2022-11-20T16:27:24.401Z,29.57
2022-11-20T16:29:52.058Z,31.00
2022-11-20T16:32:19.983Z,28.65
2022-11-20T16:34:47.646Z,33.03
2022-11-20T16:37:15.327Z,28.58
2022-11-20T16:39:43.103Z,30.97
2022-11-20T16:42:11.027Z,33.20
2022-11-20T16:44:38.706Z,28.95
2022-11-20T16:47:06.453Z,26.40
2022-11-20T16:49:34.887Z,30.65
2022-11-20T16:52:02.619Z,26.70
2022-11-20T16:54:31.755Z,28.13
2022-11-20T16:57:00.110Z,27.33
2022-11-20T16:59:27.495Z,27.48
2022-11-20T17:01:57.303Z,28.40
2022-11-20T17:04:25.738Z,29.83
2022-11-20T17:06:53.490Z,29.02
2022-11-20T17:09:21.242Z,25.35
2022-11-20T17:11:49.775Z,26.38
2022-11-20T17:14:17.657Z,29.25
2022-11-20T17:16:45.302Z,28.10
2022-11-20T17:19:13.123Z,28.10
2022-11-20T17:21:43.910Z,26.70
2022-11-20T17:24:13.464Z,27.30
2022-11-20T17:26:43.739Z,26.08
2022-11-20T17:29:19.274Z,26.40
2022-11-20T17:31:46.876Z,28.98
2022-11-20T17:34:15.806Z,27.65
2022-11-20T17:36:45.943Z,29.90
2022-11-20T17:39:15.523Z,30.50
2022-11-20T17:41:47.204Z,29.50
2022-11-20T17:44:15.036Z,34.65
2022-11-20T17:46:42.603Z,34.13
2022-11-20T17:49:11.787Z,29.05
2022-11-20T17:51:40.887Z,29.23
2022-11-20T17:54:08.585Z,30.47
2022-11-20T17:56:36.805Z,32.33
2022-11-20T17:59:09.707Z,36.63
2022-11-20T18:01:38.943Z,33.25
2022-11-20T18:04:07.018Z,33.97
2022-11-20T18:06:34.685Z,34.90
2022-11-20T18:09:04.630Z,35.70
2022-11-20T18:11:34.926Z,35.05
2022-11-20T18:14:04.412Z,34.67
2022-11-20T18:16:37.488Z,36.95
2022-11-20T18:19:05.087Z,31.73
2022-11-20T18:21:33.182Z,35.85
2022-11-20T18:24:00.768Z,38.50
2022-11-20T18:26:28.568Z,36.05
2022-11-20T18:28:56.853Z,38.03
2022-11-20T18:31:25.074Z,35.50
2022-11-20T18:33:54.310Z,34.88
2022-11-20T18:36:30.630Z,34.20
2022-11-20T18:38:59.988Z,35.30
2022-11-20T18:41:31.592Z,36.72
2022-11-20T18:44:00.080Z,33.10
2022-11-20T18:46:28.803Z,30.83
2022-11-20T18:49:05.191Z,31.08
2022-11-20T18:51:41.944Z,27.48
2022-11-20T18:54:09.987Z,26.75
2022-11-20T18:56:38.194Z,31.20
2022-11-20T18:59:08.404Z,27.35
2022-11-20T19:01:37.739Z,33.83
2022-11-20T19:04:10.564Z,31.05
2022-11-20T19:06:42.566Z,30.40
2022-11-20T19:09:13.647Z,34.73
2022-11-20T19:11:41.776Z,29.90
2022-11-20T19:14:11.266Z,31.25
2022-11-20T19:16:39.259Z,33.92
2022-11-20T19:19:07.611Z,33.58
2022-11-20T19:21:35.708Z,34.00
2022-11-20T19:24:05.308Z,36.35
2022-11-20T19:26:39.111Z,32.38
2022-11-20T19:29:09.605Z,43.88
2022-11-20T19:31:38.823Z,42.47
2022-11-20T19:34:06.406Z,36.10
2022-11-20T19:36:44.338Z,36.90
2022-11-20T19:39:13.253Z,37.50
2022-11-20T19:41:43.041Z,35.80
2022-11-20T19:44:16.732Z,33.00
2022-11-20T19:46:45.437Z,31.43
2022-11-20T19:49:20.876Z,30.95
2022-11-20T19:51:50.967Z,24.83
2022-11-20T19:54:18.856Z,23.55
2022-11-20T19:56:46.468Z,21.92
2022-11-20T19:59:15.338Z,21.83
2022-11-20T20:01:44.151Z,18.77
2022-11-20T20:04:13.102Z,18.65
2022-11-20T20:06:42.253Z,14.32
2022-11-20T20:09:12.573Z,14.60
2022-11-20T20:11:41.548Z,14.67
2022-11-20T20:14:17.055Z,12.60
2022-11-20T20:16:46.546Z,14.35
2022-11-20T20:19:16.514Z,13.70
2022-11-20T20:21:44.871Z,14.77
2022-11-20T20:24:13.613Z,13.20
2022-11-20T20:26:41.694Z,16.25
2022-11-20T20:29:09.766Z,14.10
2022-11-20T20:31:37.961Z,16.02
2022-11-20T20:34:06.967Z,14.68
2022-11-20T20:36:34.908Z,17.00
2022-11-20T20:39:05.859Z,18.27
2022-11-20T20:41:35.386Z,16.10
2022-11-20T20:44:02.990Z,16.58
2022-11-20T20:46:31.064Z,17.38
2022-11-20T20:49:00.051Z,17.77
2022-11-20T20:51:28.778Z,18.55
2022-11-20T20:54:02.336Z,18.73
2022-11-20T20:56:54.948Z,17.90
2022-11-20T20:59:23.468Z,17.55
2022-11-20T21:01:51.538Z,19.80
2022-11-20T21:04:20.489Z,20.80
2022-11-20T21:06:49.341Z,20.10
2022-11-20T21:09:17.268Z,18.13
2022-11-20T21:11:44.653Z,19.52
2022-11-20T21:14:12.048Z,18.97
2022-11-20T21:16:39.311Z,16.63
2022-11-20T21:19:06.663Z,17.58
2022-11-20T21:21:33.991Z,17.33
2022-11-20T21:24:01.594Z,17.80
2022-11-20T21:26:29.422Z,17.67
2022-11-20T21:28:57.712Z,17.90
2022-11-20T21:31:27.133Z,22.08
2022-11-20T21:33:56.056Z,22.55
2022-11-20T21:36:26.769Z,21.45
2022-11-20T21:38:57.116Z,21.73
2022-11-20T21:41:27.648Z,20.88
2022-11-20T21:44:29.120Z,23.02
2022-11-20T21:46:44.806Z,22.17
2022-11-20T21:49:12.616Z,24.80
2022-11-20T21:51:39.534Z,25.23
2022-11-20T21:54:06.320Z,24.60
2022-11-20T21:56:33.366Z,25.80
2022-11-20T21:59:00.278Z,23.45
2022-11-20T22:01:29.559Z,26.58
2022-11-20T22:04:01.863Z,24.70
2022-11-20T22:06:34.292Z,24.13
2022-11-20T22:09:02.475Z,24.27
2022-11-20T22:11:29.500Z,26.17
2022-11-20T22:13:56.219Z,23.75
2022-11-20T22:16:25.930Z,26.43
2022-11-20T22:18:59.261Z,24.13
2022-11-20T22:21:34.741Z,21.65
2022-11-20T22:24:03.502Z,26.45
2022-11-20T22:26:38.796Z,27.00
2022-11-20T22:29:12.441Z,26.47
2022-11-20T22:31:39.273Z,29.48
2022-11-20T22:34:06.096Z,26.13
2022-11-20T22:36:32.854Z,26.55
2022-11-20T22:39:02.355Z,25.23
2022-11-20T22:41:30.545Z,25.77
2022-11-20T22:44:02.506Z,28.75
2022-11-20T22:46:32.169Z,24.58
2022-11-20T22:49:01.469Z,26.67
2022-11-20T22:51:31.136Z,27.92
2022-11-20T22:53:58.063Z,27.40
2022-11-20T22:56:25.667Z,27.00
2022-11-20T22:58:53.962Z,28.27
2022-11-20T23:01:28.303Z,22.75
2022-11-20T23:03:57.999Z,27.20
2022-11-20T23:06:25.859Z,26.33
2022-11-20T23:08:53.558Z,27.50
2022-11-20T23:11:26.327Z,23.83
2022-11-20T23:13:56.530Z,26.88
2022-11-20T23:16:24.319Z,26.27
2022-11-20T23:19:03.299Z,23.23
2022-11-20T23:21:30.150Z,23.80
2022-11-20T23:23:58.640Z,25.27
2022-11-20T23:26:28.952Z,29.90
2022-11-20T23:28:57.111Z,24.58
2022-11-20T23:31:25.019Z,28.90
2022-11-20T23:33:51.892Z,23.52
2022-11-20T23:36:18.743Z,27.40
2022-11-20T23:38:45.521Z,24.40
2022-11-20T23:41:13.706Z,25.33
2022-11-20T23:43:41.063Z,26.27
2022-11-20T23:46:11.442Z,23.25
2022-11-20T23:48:40.750Z,26.40
2022-11-20T23:51:07.654Z,23.42
2022-11-20T23:53:35.225Z,23.48
2022-11-20T23:56:04.547Z,25.87
2022-11-20T23:58:35.160Z,21.23
